Latest Weather Observations for Gold Coast Seaway

IDQ60801

Issued at 8:02 pm EST Sunday 26 February 2017 (issued every 30 minutes, with the page automatically refreshed every 10 minutes)

About weather observations | Map of weather stations | Latest weather observations for QLD | Other Formats
Station Details ID: 040764 Name: GOLD COAST SEAWAY Lat: -27.94 Lon: 153.43 Height: 2.98 m
Data from the previous 72 hours. | See also: Recent months at Gold Coast Seaway
Date/Time
EST
Temp
°C
App
Temp
°C
Dew
Point
°C
Rel
Hum
%
Delta-T
°C
Wind Press
QNH
hPa
Press
MSL
hPa
Rain since
9am
mm
Dir  Spd
km/h
Gust
km/h
Spd
kts
Gust
kts
26/08:00pm 23.9 20.5 19.0 74 3.1 S 35 52 19 28 1017.2 1017.2 -
26/07:59pm 24.0 20.9 18.9 73 3.2 S 33 52 18 28 1017.0 1017.0 0.0
26/07:30pm 24.0 20.6 18.9 73 3.2 SSE 35 44 19 24 1016.6 1016.6 0.0
26/07:00pm 24.2 19.8 18.4 70 3.7 SSE 39 48 21 26 1016.3 1016.3 0.0
26/06:30pm 24.4 19.6 18.3 69 3.8 SSE 41 50 22 27 1016.0 1016.0 0.0
26/06:00pm 24.8 19.7 19.0 70 3.7 SSE 44 56 24 30 1015.5 1015.5 0.0
26/05:30pm 25.9 21.9 19.3 67 4.2 SSE 39 48 21 26 1015.5 1015.5 0.0
26/05:00pm 25.7 20.6 17.6 61 5.1 SSE 41 50 22 27 1015.4 1015.4 0.0
26/04:30pm 27.0 22.9 19.1 62 5.1 SSE 39 48 21 26 1015.1 1015.1 0.0
26/04:00pm 27.2 23.0 18.8 60 5.4 SSE 39 50 21 27 1015.3 1015.3 0.0
26/03:30pm 26.5 21.0 18.1 60 5.3 SSE 44 56 24 30 1015.2 1015.2 0.0
26/03:00pm 27.0 21.6 17.8 57 5.8 SSE 43 54 23 29 1015.2 1015.2 0.0
26/02:30pm 26.8 21.4 18.4 60 5.3 SSE 44 54 24 29 1014.9 1014.9 0.0
26/02:00pm 28.9 24.5 18.4 53 6.7 SE 39 48 21 26 1015.1 1015.1 0.0
26/01:30pm 28.4 24.2 18.8 56 6.2 SE 39 44 21 24 1015.3 1015.3 0.0
26/01:00pm 29.1 24.1 17.9 50 7.1 SE 41 50 22 27 1015.6 1015.6 0.0
26/12:30pm 30.0 24.6 17.8 48 7.8 SE 43 50 23 27 1015.8 1015.8 0.0
26/12:00pm 29.6 24.7 19.0 53 6.9 SE 43 50 23 27 1015.9 1015.9 0.0
26/11:30am 29.3 25.0 18.7 52 6.8 SE 39 48 21 26 1016.0 1016.0 0.0
26/11:00am 28.8 24.3 18.3 53 6.7 SE 39 48 21 26 1016.4 1016.4 0.0
26/10:30am 28.3 24.0 17.8 53 6.7 SE 37 46 20 25 1016.5 1016.5 0.0
26/10:00am 27.9 23.8 18.3 56 6.1 SE 37 44 20 24 1016.7 1016.7 0.0
26/09:30am 27.4 23.7 18.4 58 5.7 SSE 35 43 19 23 1016.6 1016.6 0.0
26/09:00am 26.8 23.4 18.1 59 5.5 SSE 33 39 18 21 1016.3 1016.3 0.0
26/08:30am 26.1 22.3 18.0 61 5.1 SSE 35 41 19 22 1016.3 1016.3 0.0
26/08:00am 25.5 22.3 18.7 66 4.3 SSE 33 41 18 22 1015.9 1015.9 0.0
26/07:30am 24.6 21.5 18.3 68 4.0 S 32 35 17 19 1015.6 1015.6 0.0
26/07:00am 24.4 23.4 17.6 66 4.2 S 19 30 10 16 1015.4 1015.4 0.0
26/06:30am 22.9 22.8 17.8 73 3.2 SSW 15 22 8 12 1015.1 1015.1 0.0
26/06:00am 22.2 21.6 17.6 75 2.8 S 17 22 9 12 1014.7 1014.7 0.0
26/05:30am 22.0 21.3 17.4 75 2.8 S 17 20 9 11 1014.4 1014.4 0.0
26/05:00am 22.3 21.1 17.4 74 3.0 S 20 30 11 16 1014.1 1014.1 0.0
26/04:30am 22.4 19.8 17.8 75 2.9 S 28 33 15 18 1013.9 1013.9 0.0
26/04:00am 22.0 21.3 17.4 75 2.8 S 17 22 9 12 1013.7 1013.7 0.0
26/03:30am 22.1 20.8 17.2 74 3.0 S 20 30 11 16 1013.6 1013.6 0.0
26/03:00am 22.2 21.1 17.3 74 3.0 S 19 28 10 15 1013.9 1013.9 0.0
26/02:30am 22.2 19.4 17.3 74 3.0 S 28 33 15 18 1013.9 1013.9 0.0
26/02:00am 22.2 20.4 17.8 76 2.7 S 24 32 13 17 1014.1 1014.1 0.0
26/01:30am 22.8 19.6 18.1 75 2.9 SSE 32 43 17 23 1014.2 1014.2 0.0
26/01:00am 23.3 20.5 17.3 69 3.7 S 28 35 15 19 1014.6 1014.6 0.0
26/12:30am 23.1 21.4 17.1 69 3.7 S 22 32 12 17 1015.0 1015.0 0.0
26/12:00am 23.0 20.8 16.8 68 3.8 S 24 33 13 18 1015.5 1015.5 0.0
 
Date/Time
EST
Temp
°C
App
Temp
°C
Dew
Point
°C
Rel
Hum
%
Delta-T
°C
Wind Press
QNH
hPa
Press
MSL
hPa
Rain since
9am
mm
Dir  Spd
km/h
Gust
km/h
Spd
kts
Gust
kts
25/11:30pm 22.9 21.0 16.7 68 3.8 S 22 30 12 16 1015.8 1015.8 0.0
25/11:00pm 22.9 20.1 16.4 67 3.9 S 26 35 14 19 1016.0 1016.0 0.0
25/10:30pm 23.1 19.9 16.4 66 4.1 S 28 39 15 21 1015.9 1015.9 0.0
25/10:00pm 23.3 20.0 16.1 64 4.4 S 28 35 15 19 1016.2 1016.2 0.0
25/09:30pm 23.2 20.3 16.0 64 4.4 S 26 33 14 18 1016.1 1016.1 0.0
25/09:00pm 23.3 19.6 15.9 63 4.5 S 30 39 16 21 1016.2 1016.2 0.0
25/08:30pm 23.4 19.7 16.9 67 4.0 SSE 32 39 17 21 1015.8 1015.8 0.0
25/08:00pm 23.7 19.5 17.2 67 4.0 SSE 35 41 19 22 1015.7 1015.7 0.0
25/07:30pm 24.0 18.7 17.3 66 4.2 SSE 41 50 22 27 1015.4 1015.4 0.0
25/07:00pm 24.4 19.4 18.8 71 3.6 SSE 43 52 23 28 1015.2 1015.2 0.0
25/06:30pm 24.4 19.5 18.1 68 4.0 SSE 41 50 22 27 1014.9 1014.9 0.0
25/06:00pm 24.8 19.5 18.5 68 4.0 SSE 44 56 24 30 1014.4 1014.4 0.0
25/05:30pm 25.3 18.8 18.5 66 4.3 SE 50 57 27 31 1014.0 1014.0 0.0
25/05:00pm 25.9 20.2 19.3 67 4.2 SE 48 61 26 33 1013.8 1013.8 0.0
25/04:30pm 26.5 21.3 18.9 63 4.9 SE 44 56 24 30 1013.8 1013.8 0.0
25/04:00pm 26.9 21.6 19.5 64 4.8 SE 46 56 25 30 1013.8 1013.8 0.0
25/03:30pm 27.4 22.0 19.2 61 5.3 SE 46 54 25 29 1013.7 1013.7 0.0
25/03:00pm 27.7 22.6 19.0 59 5.6 SE 44 54 24 29 1013.8 1013.8 0.0
25/02:30pm 28.0 22.4 18.7 57 6.0 SE 46 56 25 30 1014.0 1014.0 0.0
25/02:00pm 28.5 22.7 19.2 57 6.0 SE 48 57 26 31 1014.2 1014.2 0.0
25/01:30pm 28.6 23.6 19.2 56 6.1 SE 44 54 24 29 1014.5 1014.5 0.0
25/01:00pm 28.8 23.8 20.0 59 5.8 SE 46 56 25 30 1014.9 1014.9 0.0
25/12:30pm 29.5 25.3 19.8 56 6.4 SE 41 50 22 27 1015.1 1015.1 0.0
25/12:00pm 29.8 27.6 19.5 54 6.7 SE 30 37 16 20 1015.4 1015.4 0.0
25/11:30am 30.2 27.1 18.9 50 7.3 SE 33 39 18 21 1015.7 1015.7 0.0
25/11:00am 29.5 26.2 18.3 51 7.2 SE 33 39 18 21 1016.1 1016.1 0.0
25/10:30am 29.3 26.2 17.5 49 7.5 SE 30 39 16 21 1016.5 1016.5 0.0
25/10:00am 28.6 26.0 16.8 48 7.4 SSE 26 32 14 17 1016.8 1016.8 0.0
25/09:30am 28.4 25.6 17.3 51 7.0 SSE 28 33 15 18 1017.0 1017.0 0.0
25/09:00am 27.6 24.3 16.9 52 6.7 SSE 30 37 16 20 1016.8 1016.8 -
25/08:30am 26.7 23.4 16.0 52 6.6 S 28 35 15 19 1016.8 1016.8 -
25/08:00am 25.7 23.9 16.0 55 5.9 SSE 20 28 11 15 1016.7 1016.7 -
25/07:30am 24.4 24.0 16.1 60 5.1 SSW 13 19 7 10 1016.8 1016.8 -
25/07:00am 23.2 23.2 16.3 65 4.2 SSW 11 17 6 9 1016.7 1016.7 -
25/06:30am 22.1 21.5 16.6 71 3.3 SSW 15 20 8 11 1016.4 1016.4 -
25/06:00am 20.5 20.8 17.1 81 2.1 SW 11 15 6 8 1016.2 1016.2 -
25/05:30am 20.5 20.7 16.7 79 2.3 SW 11 15 6 8 1016.0 1016.0 -
25/05:00am 20.5 20.4 16.9 80 2.2 SSW 13 19 7 10 1015.8 1015.8 -
25/04:30am 20.5 21.2 17.1 81 2.1 SW 9 11 5 6 1015.7 1015.7 -
25/04:00am 20.5 20.8 17.1 81 2.1 SSW 11 17 6 9 1015.5 1015.5 -
25/03:30am 20.7 21.4 17.1 80 2.2 SW 9 13 5 7 1015.4 1015.4 -
25/03:00am 20.9 21.2 16.9 78 2.4 SSW 11 15 6 8 1015.4 1015.4 -
25/02:30am 21.2 22.5 17.6 80 2.2 SSW 7 11 4 6 1015.5 1015.5 -
25/02:00am 20.9 21.7 17.3 80 2.2 SSW 9 13 5 7 1015.5 1015.5 -
25/01:30am 21.1 21.5 17.3 79 2.3 SSW 11 13 6 7 1015.6 1015.6 -
25/01:00am 21.2 21.3 17.4 79 2.3 SSW 13 15 7 8 1015.9 1015.9 -
25/12:30am 21.5 21.5 17.3 77 2.6 SSW 13 15 7 8 1016.0 1016.0 0.0
25/12:00am 21.7 21.7 17.3 76 2.7 SSW 13 15 7 8 1016.2 1016.2 0.0
 
Date/Time
EST
Temp
°C
App
Temp
°C
Dew
Point
°C
Rel
Hum
%
Delta-T
°C
Wind Press
QNH
hPa
Press
MSL
hPa
Rain since
9am
mm
Dir  Spd
km/h
Gust
km/h
Spd
kts
Gust
kts
24/11:30pm 22.2 21.2 17.6 75 2.8 S 19 22 10 12 1016.5 1016.5 0.0
24/11:00pm 22.4 21.4 17.5 74 3.0 S 19 24 10 13 1016.6 1016.6 0.0
24/10:30pm 23.0 22.1 17.7 72 3.3 S 19 26 10 14 1016.8 1016.8 0.0
24/10:00pm 23.7 22.4 18.1 71 3.5 SE 22 28 12 15 1016.9 1016.9 0.0
24/09:30pm 23.7 22.8 18.1 71 3.5 SE 20 26 11 14 1017.1 1017.1 0.0
24/09:00pm 23.8 21.8 17.5 68 3.9 SSE 24 30 13 16 1017.2 1017.2 0.0
24/08:30pm 24.1 22.6 18.5 71 3.5 SE 24 30 13 16 1017.3 1017.3 0.0
24/08:00pm 24.1 22.1 18.3 70 3.6 SE 26 33 14 18 1017.1 1017.1 0.0
24/07:30pm 24.3 22.2 18.9 72 3.4 SE 28 33 15 18 1017.0 1017.0 0.0
24/07:00pm 24.3 21.2 18.9 72 3.4 SE 33 39 18 21 1016.8 1016.8 0.0
24/06:30pm 24.4 21.3 18.8 71 3.6 SE 33 41 18 22 1016.5 1016.5 0.0
24/06:00pm 24.9 21.9 19.1 70 3.7 SE 33 39 18 21 1016.4 1016.4 0.0
24/05:30pm 25.6 22.6 19.0 67 4.2 SE 33 41 18 22 1016.3 1016.3 0.0
24/05:00pm 26.3 23.2 18.4 61 5.0 SE 32 39 17 21 1016.1 1016.1 0.0
24/04:30pm 26.9 23.7 18.5 60 5.4 SE 33 39 18 21 1016.1 1016.1 0.0
24/04:00pm 27.4 24.0 17.8 55 6.1 SE 32 37 17 20 1016.1 1016.1 0.0
24/03:30pm 28.2 24.9 18.0 54 6.5 SE 32 35 17 19 1016.0 1016.0 0.0
24/03:00pm 27.8 24.4 17.6 53 6.4 SE 32 37 17 20 1016.2 1016.2 0.0
24/02:30pm 27.9 24.8 18.3 56 6.1 SE 32 37 17 20 1016.4 1016.4 0.0
24/02:00pm 28.5 25.5 18.6 55 6.3 ESE 32 35 17 19 1016.5 1016.5 0.0
24/01:30pm 28.8 26.0 19.1 55 6.3 ESE 32 35 17 19 1016.7 1016.7 0.0
24/01:00pm 28.7 25.5 18.5 54 6.5 SE 33 37 18 20 1017.1 1017.1 0.0
24/12:30pm 28.8 26.3 18.0 52 6.9 SE 28 32 15 17 1017.5 1017.5 0.0
24/12:00pm 29.2 26.6 17.7 50 7.3 SE 28 32 15 17 1017.9 1017.9 0.0
24/11:30am 29.8 27.4 18.3 50 7.4 SE 28 32 15 17 1018.1 1018.1 0.0
24/11:00am 30.2 28.5 18.0 48 7.8 SE 24 28 13 15 1018.4 1018.4 0.0
24/10:30am 29.6 28.4 18.4 51 7.2 SSE 22 28 12 15 1018.8 1018.8 0.0
24/10:00am 29.3 27.4 16.8 47 7.8 SSE 22 28 12 15 1018.9 1018.9 0.0
24/09:30am 28.5 26.5 16.4 48 7.5 SSE 22 28 12 15 1018.9 1018.9 0.0
24/09:00am 28.0 26.3 17.2 52 6.8 SSE 22 28 12 15 1019.0 1019.0 0.0
24/08:30am 26.9 25.2 17.1 55 6.1 SSE 22 28 12 15 1019.0 1019.0 0.0
24/08:00am 25.9 23.1 17.3 59 5.4 S 28 33 15 18 1018.6 1018.6 0.0
24/07:30am 25.0 23.3 17.2 62 4.8 S 22 32 12 17 1018.4 1018.4 0.0
24/07:00am 23.3 22.8 16.8 67 4.0 S 15 20 8 11 1018.2 1018.2 0.0
24/06:30am 22.1 21.7 17.2 74 3.0 S 15 22 8 12 1018.0 1018.0 0.0
24/06:00am 21.0 20.7 17.4 80 2.2 S 15 19 8 10 1017.7 1017.7 0.0
24/05:30am 20.5 20.5 17.1 81 2.1 SSW 13 17 7 9 1017.3 1017.3 0.0
24/05:00am 20.7 20.7 17.1 80 2.2 S 13 15 7 8 1017.0 1017.0 0.0
24/04:30am 20.7 21.2 17.5 82 2.0 SSW 11 13 6 7 1017.0 1017.0 0.0
24/04:00am 20.9 21.3 17.3 80 2.2 SSW 11 15 6 8 1016.8 1016.8 0.0
24/03:30am 21.2 21.2 17.2 78 2.4 S 13 17 7 9 1016.9 1016.9 0.0
24/03:00am 21.1 20.3 17.1 78 2.4 S 17 22 9 12 1017.0 1017.0 0.0
24/02:30am 21.5 20.6 17.7 79 2.3 S 19 26 10 14 1017.1 1017.1 0.0
24/02:00am 21.6 20.6 18.0 80 2.2 SSE 20 28 11 15 1017.2 1017.2 0.0
24/01:30am 21.7 20.6 17.7 78 2.5 S 20 26 11 14 1017.6 1017.6 0.0
24/01:00am 21.3 21.1 17.5 79 2.3 S 15 17 8 9 1017.7 1017.7 0.0
24/12:30am 21.6 21.7 17.4 77 2.6 SSW 13 17 7 9 1018.0 1018.0 0.0
24/12:00am 21.9 22.0 17.5 76 2.7 SSW 13 19 7 10 1018.2 1018.2 0.0
 
Date/Time
EST
Temp
°C
App
Temp
°C
Dew
Point
°C
Rel
Hum
%
Delta-T
°C
Wind Press
QNH
hPa
Press
MSL
hPa
Rain since
9am
mm
Dir  Spd
km/h
Gust
km/h
Spd
kts
Gust
kts
23/11:30pm 21.8 21.9 17.4 76 2.7 SSW 13 17 7 9 1018.5 1018.5 0.0
23/11:00pm 22.1 21.0 17.2 74 3.0 S 19 26 10 14 1018.7 1018.7 0.0
23/10:30pm 22.6 20.9 18.2 76 2.8 SSE 24 28 13 15 1018.7 1018.7 0.0
23/10:00pm 22.5 21.6 17.8 75 2.9 S 19 28 10 15 1019.0 1019.0 0.0
23/09:30pm 22.9 21.7 17.1 70 3.6 S 19 24 10 13 1019.1 1019.1 0.0
23/09:00pm 23.7 21.3 17.4 68 3.9 SSE 26 35 14 19 1019.1 1019.1 0.0
23/08:30pm 24.3 22.0 18.5 70 3.7 SE 28 35 15 19 1019.0 1019.0 0.0

Other Formats:

Comma delimited format used in spreadsheet applications
http://www.bom.gov.au/fwo/IDQ60801/IDQ60801.94580.axf

JavaScript Object Notation format (JSON) in row-major order
http://www.bom.gov.au/fwo/IDQ60801/IDQ60801.94580.json